Pagina principale
METAR-TAF:

METAR-TAF

Aeroporti :

Aeroporto Internazionale di Marsa Alam

Marsa Alam, Egitto

latitudine: 25-33-25N, longitudine: 34-35-01E, altezza: 77 m

Osservazione

Il bollettino è stato emesso 1 ora e 9 minuti fa, alle 01:00 UTC
Vento 14 kt da ovest/nord-ovest
Temperature 14°C
Umidità 55%
Pressione 1022 hPa
Visibilità 10 km o più
nessuna nube inferiore a 1500 m e nessun cumulonembo

METAR: HEMA 250100Z 30014KT CAVOK 14/05 Q1022 NOSIG

Ora: 04:09 (02:09 UTC)

Previsione

Il bollettino è stato emesso 3 ore e 9 minuti fa, alle 23:00 UTC
Previsione valida dal 25 alle 00 UTC al 26 alle 06 UTC
Vento 8 kt da ovest/nord-ovest con raffiche fino a 18 kt
Visibilità 10 km o più
nessuna nube inferiore a 1500 m e nessun cumulonembo

TAF: HEMA 242300Z 2500/2606 30008G18KT CAVOK

Osservazioni e previsioni meteorologiche di più di 4000 aeroporti (messaggi METAR e TAF).

Le stazioni disponibili sono rappresentate dai dischi gialli e rossi sulla carta.

Puntare il mouse per vedere il nome della stazione.

Clicca sopra per visualizzare le osservazioni e previsioni meteorologiche.

Per cambiare la mappa : fare clic sui pulsanti verdi con una croce nera per ingrandire, il pulsante verde con un trattino per diminuire, o sulla freccia verde per le mappe adiacenti.


METAR-TAF: